»·PEaware :: N6656 KPDX-KSFO

N6656 :: KPDX-KSFO

FLIGHT INFORMATION

Flight Status: Arrived
Operator: Privately registered:
United States
More flights under this callsign
Pilot: William K. (19718)
Aircraft: CESSNA 550 CITATION 2/S2/BRAVO
(C550)
More flights by this aircraft type
Origin: KPDX Portland Intl
United States
Destination: KSFO San Francisco Intl
United States
More flights between these airports :: More routes between these airports
Route: MINNE5 FAMUK Q3 FRFLY Q3 FOWND MLBEC BDEGA3
File this flight plan on PilotEdge
Remarks:
Altitude:
(Current/Filed)
27,000ft
Speed:
(Current/Filed)
300kts
Departed: 13-May-19 07:51 AM
Arrived: 13-May-19 09:41 AM
Distance/Time
Traveled:
478nm/1:49
Distance/Time
To Go:
Arrived

Flight Plot

Page will automatically refresh every two minutes.

Flight plan parsing failed; only flown route is shown


Map Options




Map Legend


Flown Route
Filed Route
Departure Airport
Arrival Airport
Navaid (VOR, NDB)
Fix

Horizontal Profiles

Position Reports

Time Latitude Longitude Heading Altitude Ground
Speed
13-May-19 07:06 45.585437 -122.580999 28 28ft 0kts
13-May-19 07:07 45.585437 -122.580999 28 28ft 0kts
13-May-19 07:08 45.585437 -122.580999 28 28ft 0kts
13-May-19 07:09 45.585437 -122.580999 28 28ft 0kts
13-May-19 07:10 45.585437 -122.580999 28 28ft 0kts
13-May-19 07:11 45.585437 -122.580999 28 28ft 0kts
13-May-19 07:12 45.585437 -122.580999 28 28ft 0kts
13-May-19 07:13 45.585437 -122.580999 28 28ft 0kts
13-May-19 07:14 45.585437 -122.580999 28 28ft 0kts
13-May-19 07:15 45.585437 -122.580999 28 28ft 0kts
13-May-19 07:16 45.585437 -122.580999 28 28ft 0kts
13-May-19 07:17 45.585437 -122.580999 28 28ft 0kts
13-May-19 07:18 45.585437 -122.580999 28 28ft 0kts
13-May-19 07:19 45.585437 -122.580999 28 28ft 0kts
13-May-19 07:20 45.585437 -122.580999 28 28ft 0kts
13-May-19 07:21 45.585437 -122.580999 28 28ft 0kts
13-May-19 07:22 45.585437 -122.580999 28 28ft 0kts
13-May-19 07:23 45.585437 -122.580999 28 28ft 0kts
13-May-19 07:24 45.585437 -122.580999 28 28ft 0kts
13-May-19 07:25 45.585437 -122.580999 28 28ft 0kts
13-May-19 07:26 45.585437 -122.580999 28 28ft 0kts
13-May-19 07:27 45.585437 -122.580999 28 28ft 0kts
13-May-19 07:28 45.585437 -122.580999 28 28ft 0kts
13-May-19 07:29 45.585437 -122.580999 28 28ft 0kts
13-May-19 07:30 45.585437 -122.580999 28 28ft 0kts
13-May-19 07:31 45.585437 -122.580999 28 28ft 0kts
13-May-19 07:32 45.585437 -122.580999 28 28ft 0kts
13-May-19 07:33 45.585437 -122.580999 28 28ft 0kts
13-May-19 07:34 45.585437 -122.580999 28 28ft 0kts
13-May-19 07:35 45.585437 -122.580999 28 28ft 0kts
13-May-19 07:36 45.585437 -122.580999 28 28ft 0kts
13-May-19 07:37 45.585437 -122.580999 28 28ft 0kts
13-May-19 07:38 45.585437 -122.580999 28 28ft 0kts
13-May-19 07:39 45.585437 -122.580999 28 28ft 0kts
13-May-19 07:40 45.585437 -122.580999 28 28ft 0kts
13-May-19 07:41 45.587084 -122.581797 329 28ft 7kts
13-May-19 07:42 45.588111 -122.582649 18 28ft 6kts
13-May-19 07:43 45.589836 -122.586110 299 28ft 15kts
13-May-19 07:44 45.591702 -122.590883 299 28ft 9kts
13-May-19 07:45 45.592972 -122.594158 299 28ft 8kts
13-May-19 07:46 45.594198 -122.597369 296 28ft 0kts
13-May-19 07:47 45.594502 -122.597518 42 28ft 0kts
13-May-19 07:48 45.594502 -122.597518 42 28ft 0kts
13-May-19 07:49 45.594564 -122.597425 48 28ft 9kts
13-May-19 07:50 45.590903 -122.585604 118 197ft 139kts
13-May-19 07:51 45.576222 -122.519610 103 3489ft 186kts
13-May-19 07:52 45.563161 -122.446516 104 6838ft 197kts
13-May-19 07:53 45.549130 -122.369421 104 9853ft 206kts
13-May-19 07:54 45.509816 -122.330116 216 12531ft 211kts
13-May-19 07:55 45.496179 -122.411109 246 14972ft 218kts
13-May-19 07:56 45.463097 -122.483829 233 17593ft 221kts
13-May-19 07:57 45.427401 -122.556141 232 19919ft 226kts
13-May-19 07:58 45.390871 -122.629964 232 22021ft 230kts
13-May-19 07:59 45.353591 -122.705113 231 23922ft 234kts
13-May-19 08:00 45.315738 -122.781227 231 25614ft 238kts
13-May-19 08:01 45.277067 -122.858759 232 27047ft 245kts
13-May-19 08:02 45.233694 -122.945509 232 27089ft 290kts
13-May-19 08:03 45.164120 -122.993590 181 27086ft 314kts
13-May-19 08:04 45.075104 -122.994353 186 27084ft 324kts
13-May-19 08:05 44.986526 -123.019864 192 27079ft 328kts
13-May-19 08:06 44.896674 -123.041695 192 27079ft 331kts
13-May-19 08:07 44.805518 -123.063459 192 27084ft 332kts
13-May-19 08:08 44.714328 -123.085130 192 27087ft 332kts
13-May-19 08:09 44.622969 -123.106800 192 27091ft 332kts
13-May-19 08:10 44.532003 -123.128283 192 27091ft 331kts
13-May-19 08:11 44.439083 -123.130087 181 27091ft 340kts
13-May-19 08:12 44.342589 -123.121658 180 27089ft 351kts
13-May-19 08:13 44.244792 -123.112876 180 27089ft 354kts
13-May-19 08:14 44.145652 -123.104012 180 27097ft 357kts
13-May-19 08:15 44.046173 -123.095141 180 27096ft 359kts
13-May-19 08:16 43.946480 -123.086274 180 27096ft 359kts
13-May-19 08:17 43.846458 -123.077421 180 27102ft 360kts
13-May-19 08:18 43.746354 -123.068587 180 27102ft 361kts
13-May-19 08:19 43.646192 -123.059768 180 27101ft 361kts
13-May-19 08:20 43.545794 -123.050967 180 27100ft 361kts
13-May-19 08:21 43.445316 -123.042190 180 27100ft 361kts
13-May-19 08:22 43.344800 -123.033440 180 27099ft 361kts
13-May-19 08:23 43.244367 -123.024714 180 27098ft 361kts
13-May-19 08:24 43.144430 -123.022781 180 27099ft 361kts
13-May-19 08:25 43.043712 -123.013795 179 27097ft 361kts
13-May-19 08:26 42.943426 -122.995940 175 27089ft 364kts
13-May-19 08:27 42.844694 -122.988246 182 27086ft 363kts
13-May-19 08:28 42.743355 -122.987506 182 27077ft 364kts
13-May-19 08:29 42.642027 -122.986711 182 27074ft 364kts
13-May-19 08:30 42.540629 -122.985923 182 27073ft 364kts
13-May-19 08:31 42.439264 -122.985141 182 27072ft 364kts
13-May-19 08:32 42.337782 -122.984356 182 27072ft 364kts
13-May-19 08:33 42.236396 -122.983574 182 27071ft 364kts
13-May-19 08:34 42.134940 -122.982792 182 27071ft 364kts
13-May-19 08:35 42.033574 -122.982017 182 27069ft 364kts
13-May-19 08:36 41.932441 -122.981248 182 27065ft 364kts
13-May-19 08:38 41.831988 -122.980479 182 27068ft 364kts
13-May-19 08:39 41.730411 -122.979710 182 27065ft 365kts
13-May-19 08:40 41.628887 -122.978940 182 27065ft 365kts
13-May-19 08:41 41.528846 -122.978188 182 27064ft 365kts
13-May-19 08:42 41.427421 -122.977427 182 27063ft 365kts
13-May-19 08:43 41.325909 -122.976669 182 27063ft 365kts
13-May-19 08:44 41.224539 -122.975905 182 27062ft 365kts
13-May-19 08:45 41.123037 -122.975153 182 27061ft 365kts
13-May-19 08:46 41.021472 -122.974415 182 27047ft 366kts
13-May-19 08:47 40.919190 -122.973656 182 27034ft 369kts
13-May-19 08:48 40.817330 -122.972888 182 27038ft 371kts
13-May-19 08:49 40.714336 -122.972135 182 27037ft 371kts
13-May-19 08:50 40.610708 -122.971375 182 27037ft 371kts
13-May-19 08:51 40.507465 -122.970621 182 27036ft 371kts
13-May-19 08:52 40.404088 -122.969870 182 27036ft 371kts
13-May-19 08:53 40.300563 -122.969115 182 27036ft 371kts
13-May-19 08:54 40.197341 -122.968372 182 27047ft 371kts
13-May-19 08:54 40.111008 -122.967741 182 27056ft 371kts
13-May-19 08:56 39.990500 -122.966874 182 27065ft 371kts
13-May-19 08:57 39.888589 -122.966148 182 27068ft 371kts
13-May-19 08:57 39.802417 -122.965529 182 27072ft 371kts
13-May-19 08:59 39.681922 -122.964668 182 27090ft 371kts
13-May-19 08:59 39.595904 -122.964060 182 27092ft 372kts
13-May-19 09:00 39.492608 -122.963325 182 27091ft 372kts
13-May-19 09:01 39.388753 -122.962577 182 26961ft 362kts
13-May-19 09:02 39.298127 -122.961874 183 26960ft 299kts
13-May-19 09:03 39.219343 -122.961351 183 26961ft 271kts
13-May-19 09:04 39.144900 -122.960870 183 26962ft 267kts
13-May-19 09:05 39.070447 -122.960358 183 26961ft 267kts
13-May-19 09:06 38.995774 -122.959843 183 26962ft 268kts
13-May-19 09:07 38.920861 -122.959353 182 26966ft 271kts
13-May-19 09:08 38.843968 -122.949436 170 26308ft 294kts
13-May-19 09:09 38.766965 -122.926997 169 25654ft 274kts
13-May-19 09:10 38.692716 -122.905064 169 23983ft 271kts
13-May-19 09:11 38.619593 -122.883481 169 22389ft 266kts
13-May-19 09:12 38.548123 -122.862414 169 20783ft 262kts
13-May-19 09:13 38.478113 -122.841798 169 19304ft 255kts
13-May-19 09:14 38.409744 -122.821708 169 17882ft 249kts
13-May-19 09:15 38.343062 -122.802154 169 16538ft 243kts
13-May-19 09:16 38.277666 -122.783011 169 15262ft 238kts
13-May-19 09:17 38.213909 -122.764393 169 14061ft 233kts
13-May-19 09:18 38.150778 -122.746027 169 13214ft 230kts
13-May-19 09:19 38.080463 -122.725655 169 13140ft 275kts
13-May-19 09:20 38.004924 -122.703719 169 12212ft 277kts
13-May-19 09:21 37.929995 -122.682010 167 11375ft 276kts
13-May-19 09:22 37.868912 -122.623950 142 10654ft 278kts
13-May-19 09:23 37.809896 -122.561272 142 10046ft 272kts
13-May-19 09:24 37.755715 -122.503417 142 8412ft 252kts
13-May-19 09:25 37.705109 -122.449365 142 7212ft 221kts
13-May-19 09:26 37.654257 -122.413489 163 6994ft 207kts
13-May-19 09:27 37.599244 -122.390000 163 6881ft 211kts
13-May-19 09:28 37.543210 -122.366289 163 6052ft 211kts
13-May-19 09:29 37.488666 -122.342709 163 5304ft 212kts
13-May-19 09:30 37.452357 -122.292287 104 4540ft 212kts
13-May-19 09:31 37.458764 -122.224926 63 4004ft 209kts
13-May-19 09:32 37.483601 -122.157889 63 3316ft 203kts
13-May-19 09:33 37.515944 -122.110294 342 2986ft 177kts
13-May-19 09:34 37.532895 -122.163134 294 2990ft 164kts
13-May-19 09:35 37.552624 -122.210913 298 2496ft 167kts
13-May-19 09:36 37.576544 -122.268442 299 1401ft 168kts
13-May-19 09:37 37.592264 -122.306779 297 955ft 90kts
13-May-19 09:38 37.603708 -122.333480 295 492ft 87kts
13-May-19 09:39 37.614993 -122.360644 295 24ft 73kts
13-May-19 09:40 37.621012 -122.375117 298 18ft 33kts

Navigation Log

Ident Type
Flight plan parsing failed, navigation log unavailable